createdAt,value
2022-11-19T00:00:52.385Z,8.9
2022-11-19T00:07:03.128Z,8.9
2022-11-19T00:13:13.746Z,8.9
2022-11-19T00:19:24.379Z,8.9
2022-11-19T00:25:35.053Z,8.9
2022-11-19T00:31:45.759Z,8.8
2022-11-19T00:37:56.371Z,8.9
2022-11-19T00:44:07.037Z,8.6
2022-11-19T00:50:09.531Z,8.7
2022-11-19T00:56:20.162Z,8.3
2022-11-19T01:02:30.821Z,8.8
2022-11-19T01:08:41.545Z,8.8
2022-11-19T01:14:52.171Z,8.7
2022-11-19T01:21:02.854Z,9
2022-11-19T01:27:13.608Z,9
2022-11-19T01:33:24.177Z,8.7
2022-11-19T01:39:34.837Z,8.8
2022-11-19T01:45:45.502Z,8.5
2022-11-19T01:51:47.993Z,8.4
2022-11-19T01:58:06.901Z,8.1
2022-11-19T02:04:17.532Z,8.3
2022-11-19T02:09:30.408Z,8.3
2022-11-19T02:15:41.081Z,8.5
2022-11-19T02:21:51.780Z,8.4
2022-11-19T02:28:02.481Z,8.5
2022-11-19T02:34:13.067Z,7.9
2022-11-19T02:40:23.778Z,8
2022-11-19T02:46:34.402Z,8.1
2022-11-19T02:52:36.894Z,8.1
2022-11-19T02:58:47.549Z,7.6
2022-11-19T03:04:58.224Z,7.7
2022-11-19T03:11:08.894Z,6.8
2022-11-19T03:17:19.585Z,7
2022-11-19T03:23:30.198Z,7
2022-11-19T03:29:40.866Z,6.6
2022-11-19T03:35:51.564Z,6.3
2022-11-19T03:42:02.203Z,5.6
2022-11-19T03:48:12.876Z,5.8
2022-11-19T03:54:15.382Z,5.6
2022-11-19T04:00:26.021Z,5.4
2022-11-19T04:06:36.694Z,5.5
2022-11-19T04:12:47.362Z,5.8
2022-11-19T04:18:58.004Z,4.8
2022-11-19T04:25:08.692Z,4.6
2022-11-19T04:31:19.359Z,4.5
2022-11-19T04:37:46.365Z,4.3
2022-11-19T04:43:57.044Z,4.3
2022-11-19T04:51:13.677Z,3.9
2022-11-19T04:57:24.325Z,3.6
2022-11-19T05:03:34.968Z,3.6
2022-11-19T05:09:45.685Z,3.3
2022-11-19T05:15:56.321Z,3.5
2022-11-19T05:23:21.101Z,3.2
2022-11-19T05:29:31.812Z,3.3
2022-11-19T05:35:42.455Z,3.2
2022-11-19T05:41:53.118Z,3.1
2022-11-19T05:48:03.801Z,3
2022-11-19T05:54:06.371Z,3.1
2022-11-19T06:00:16.911Z,3.1
2022-11-19T06:06:35.783Z,3.1
2022-11-19T06:12:46.428Z,3.2
2022-11-19T06:18:57.096Z,3.2
2022-11-19T06:25:07.800Z,3.3
2022-11-19T06:31:18.425Z,3.4
2022-11-19T06:37:29.087Z,3.2
2022-11-19T06:43:39.770Z,2.9
2022-11-19T06:49:50.418Z,3.1
2022-11-19T06:55:52.940Z,3.1
2022-11-19T07:02:03.654Z,2.8
2022-11-19T07:08:30.591Z,2.8
2022-11-19T07:14:41.278Z,2.9
2022-11-19T07:20:51.966Z,3.1
2022-11-19T07:27:02.600Z,2.6
2022-11-19T07:33:13.289Z,2.7
2022-11-19T07:39:23.950Z,2.6
2022-11-19T07:45:34.608Z,2.7
2022-11-19T07:51:45.262Z,2.9
2022-11-19T07:57:47.759Z,3.2
2022-11-19T08:03:58.385Z,3.2
2022-11-19T08:10:09.097Z,3.2
2022-11-19T08:16:19.746Z,3.3
2022-11-19T08:22:30.385Z,3.3
2022-11-19T08:28:41.046Z,3.4
2022-11-19T08:34:51.751Z,3.2
2022-11-19T08:41:02.381Z,3.6
2022-11-19T08:47:13.065Z,3.5
2022-11-19T08:53:23.742Z,3.1
2022-11-19T08:59:26.194Z,3.1
2022-11-19T09:05:36.836Z,3.3
2022-11-19T09:11:47.583Z,3
2022-11-19T09:17:58.196Z,3.2
2022-11-19T09:24:08.827Z,3.5
2022-11-19T09:30:19.690Z,3.3
2022-11-19T09:36:30.305Z,3.3
2022-11-19T09:41:43.110Z,3.5
2022-11-19T09:47:53.851Z,3.4
2022-11-19T09:54:12.710Z,4.5
2022-11-19T09:59:17.353Z,4.9
2022-11-19T10:06:42.195Z,4.8
2022-11-19T10:14:06.942Z,5
2022-11-19T10:20:17.660Z,5
2022-11-19T10:25:30.537Z,5.3
2022-11-19T10:30:43.451Z,5.5
2022-11-19T10:36:54.081Z,5.6
2022-11-19T10:43:04.771Z,5.7
2022-11-19T10:49:15.456Z,5.5
2022-11-19T10:55:26.088Z,5.1
2022-11-19T11:01:28.666Z,4.9
2022-11-19T11:07:39.247Z,4.4
2022-11-19T11:13:49.903Z,4.6
2022-11-19T11:20:00.588Z,4.6
2022-11-19T11:26:11.240Z,4.5
2022-11-19T11:32:21.888Z,4.7
2022-11-19T11:38:32.590Z,4.6
2022-11-19T11:44:43.227Z,4.8
2022-11-19T11:50:53.865Z,5.3
2022-11-19T11:56:56.381Z,5.4
2022-11-19T12:03:07.017Z,5.1
2022-11-19T12:08:25.599Z,5.2
2022-11-19T12:14:30.635Z,4.5
2022-11-19T12:20:41.254Z,5.1
2022-11-19T12:26:51.944Z,5.2
2022-11-19T12:33:02.635Z,5.4
2022-11-19T12:39:13.271Z,5.2
2022-11-19T12:45:23.939Z,4.9
2022-11-19T12:51:34.653Z,4.3
2022-11-19T12:58:51.195Z,4.7
2022-11-19T13:05:01.886Z,4.9
2022-11-19T13:11:12.543Z,5
2022-11-19T13:17:23.204Z,4.8
2022-11-19T13:23:33.851Z,4.3
2022-11-19T13:29:44.567Z,4.2
2022-11-19T13:35:55.192Z,4.4
2022-11-19T13:42:05.866Z,4.5
2022-11-19T13:48:16.566Z,4
2022-11-19T13:54:27.187Z,4.2
2022-11-19T14:00:29.666Z,4
2022-11-19T14:06:40.350Z,4.4
2022-11-19T14:12:51.006Z,4.4
2022-11-19T14:19:01.700Z,4.3
2022-11-19T14:25:12.473Z,4.4
2022-11-19T14:31:22.971Z,4.7
2022-11-19T14:37:58.249Z,4.8
2022-11-19T14:44:08.929Z,4.9
2022-11-19T14:50:19.563Z,4.7
2022-11-19T14:56:30.236Z,4.9
2022-11-19T15:02:32.862Z,4.8
2022-11-19T15:08:43.340Z,5.1
2022-11-19T15:14:54.068Z,5
2022-11-19T15:21:04.709Z,4.9
2022-11-19T15:27:15.379Z,4.8
2022-11-19T15:33:26.033Z,4.7
2022-11-19T15:39:36.715Z,4.9
2022-11-19T15:45:47.386Z,5
2022-11-19T15:51:58.055Z,5.2
2022-11-19T15:58:00.516Z,4.9
2022-11-19T16:04:11.149Z,4.9
2022-11-19T16:10:21.847Z,3.9
2022-11-19T16:16:32.530Z,3.6
2022-11-19T16:22:43.155Z,4.2
2022-11-19T16:28:53.823Z,4.4
2022-11-19T16:35:04.518Z,4.9
2022-11-19T16:41:15.169Z,5
2022-11-19T16:47:25.827Z,4.8
2022-11-19T16:53:36.491Z,4.8
2022-11-19T17:00:53.069Z,5.2
2022-11-19T17:07:20.168Z,4.9
2022-11-19T17:13:30.819Z,5
2022-11-19T17:19:41.461Z,5.1
2022-11-19T17:25:52.144Z,5.1
2022-11-19T17:32:02.829Z,5.1
2022-11-19T17:38:13.484Z,5
2022-11-19T17:44:24.153Z,4.9
2022-11-19T17:50:34.842Z,5.1
2022-11-19T17:56:45.447Z,5.3
2022-11-19T18:02:47.953Z,5.3
2022-11-19T18:08:58.602Z,4.4
2022-11-19T18:15:09.248Z,4.1
2022-11-19T18:21:19.925Z,4.3
2022-11-19T18:27:30.598Z,4.3
2022-11-19T18:33:41.258Z,4.6
2022-11-19T18:39:52.158Z,4.5
2022-11-19T18:46:10.794Z,4.3
2022-11-19T18:52:21.441Z,4.2
2022-11-19T19:00:52.182Z,4.4
2022-11-19T19:07:02.985Z,4
2022-11-19T19:13:13.530Z,4.2
2022-11-19T19:19:24.325Z,3.8
2022-11-19T19:25:34.850Z,3.6
2022-11-19T19:31:45.537Z,3.2
2022-11-19T19:38:12.560Z,3.1
2022-11-19T19:44:23.241Z,3
2022-11-19T19:50:33.898Z,2.9
2022-11-19T19:56:44.568Z,2.8
2022-11-19T20:02:47.048Z,2.6
2022-11-19T20:08:57.710Z,2.4
2022-11-19T20:15:08.372Z,2.3
2022-11-19T20:21:19.051Z,2.4
2022-11-19T20:27:29.699Z,2.3
2022-11-19T20:33:40.342Z,2.4
2022-11-19T20:39:51.042Z,2.6
2022-11-19T20:46:01.662Z,2.7
2022-11-19T20:52:12.359Z,2.8
2022-11-19T20:58:23.054Z,2.8
2022-11-19T21:04:25.471Z,2.9
2022-11-19T21:10:36.139Z,2.8
2022-11-19T21:16:47.097Z,2.9
2022-11-19T21:22:57.462Z,3.2
2022-11-19T21:29:08.132Z,3.5
2022-11-19T21:35:18.836Z,3.3
2022-11-19T21:41:29.489Z,3.3
2022-11-19T21:47:40.135Z,3.3
2022-11-19T21:53:50.836Z,3.3
2022-11-19T22:00:01.460Z,3.7
2022-11-19T22:06:04.099Z,3.6
2022-11-19T22:11:16.883Z,3.6
2022-11-19T22:17:32.536Z,3.7
2022-11-19T22:23:38.214Z,3.6
2022-11-19T22:29:48.892Z,3.6
2022-11-19T22:36:00.997Z,3.4
2022-11-19T22:42:10.165Z,3.2
2022-11-19T22:48:20.874Z,3.1
2022-11-19T22:54:41.794Z,3.2
2022-11-19T23:01:56.302Z,3.1
2022-11-19T23:09:21.234Z,3.1
2022-11-19T23:15:31.787Z,2.5
2022-11-19T23:21:42.449Z,2.5
2022-11-19T23:27:53.136Z,2.7
2022-11-19T23:34:03.808Z,3.1
2022-11-19T23:40:14.444Z,3.3
2022-11-19T23:46:25.107Z,3.5
2022-11-19T23:52:35.787Z,3.4
2022-11-19T23:58:46.413Z,3.3
